createdAt,value
2019-01-31T00:01:01.180Z,17.50
2019-01-31T00:04:04.317Z,30.63
2019-01-31T00:06:52.526Z,29.00
2019-01-31T00:09:49.663Z,26.00
2019-01-31T00:12:31.879Z,32.13
2019-01-31T00:15:15.459Z,43.93
2019-01-31T00:18:05.267Z,24.07
2019-01-31T00:20:56.193Z,28.07
2019-01-31T00:23:44.282Z,23.50
2019-01-31T00:26:32.402Z,13.37
2019-01-31T00:29:04.303Z,10.87
2019-01-31T00:31:52.451Z,9.90
2019-01-31T00:34:31.104Z,8.47
2019-01-31T00:37:07.102Z,11.63
2019-01-31T00:40:01.046Z,11.83
2019-01-31T00:42:33.295Z,10.60
2019-01-31T00:45:27.454Z,11.03
2019-01-31T00:48:02.983Z,12.50
2019-01-31T00:50:38.905Z,8.97
2019-01-31T00:53:38.950Z,8.23
2019-01-31T00:56:18.353Z,9.83
2019-01-31T00:59:15.537Z,8.77
2019-01-31T01:01:48.851Z,10.03
2019-01-31T01:04:25.148Z,8.33
2019-01-31T01:07:01.282Z,9.67
2019-01-31T01:09:41.983Z,6.17
2019-01-31T01:12:28.763Z,9.27
2019-01-31T01:15:19.662Z,12.10
2019-01-31T01:17:51.100Z,15.83
2019-01-31T01:20:39.202Z,18.03
2019-01-31T01:23:20.183Z,20.50
2019-01-31T01:26:03.998Z,18.20
2019-01-31T01:29:00.902Z,9.37
2019-01-31T01:31:40.959Z,12.50
2019-01-31T01:34:16.653Z,12.50
2019-01-31T01:36:48.813Z,15.33
2019-01-31T01:39:24.743Z,18.83
2019-01-31T01:42:03.196Z,15.00
2019-01-31T01:44:57.240Z,16.87
2019-01-31T01:47:38.067Z,14.30
2019-01-31T01:50:25.040Z,10.70
2019-01-31T01:52:59.014Z,17.57
2019-01-31T01:55:56.383Z,10.93
2019-01-31T01:58:40.191Z,13.13
2019-01-31T02:01:22.927Z,7.97
2019-01-31T02:04:00.131Z,11.27
2019-01-31T02:06:36.600Z,7.67
2019-01-31T02:09:30.082Z,6.67
2019-01-31T02:12:09.051Z,6.93
2019-01-31T02:15:03.262Z,5.20
2019-01-31T02:17:36.093Z,5.00
2019-01-31T02:20:21.690Z,7.53
2019-01-31T02:23:02.299Z,9.00
2019-01-31T02:25:53.988Z,8.57
2019-01-31T02:28:26.112Z,5.97
2019-01-31T02:31:17.404Z,9.97
2019-01-31T02:34:11.691Z,14.07
2019-01-31T02:36:44.223Z,10.63
2019-01-31T02:39:17.849Z,10.30
2019-01-31T02:41:55.094Z,11.30
2019-01-31T02:44:29.149Z,11.80
2019-01-31T02:47:05.182Z,11.93
2019-01-31T02:49:37.642Z,10.00
2019-01-31T02:52:28.503Z,11.37
2019-01-31T02:55:19.682Z,8.43
2019-01-31T02:58:07.811Z,11.60
2019-01-31T03:00:42.509Z,10.67
2019-01-31T03:03:24.145Z,8.30
2019-01-31T03:05:57.483Z,8.37
2019-01-31T03:08:30.015Z,10.17
2019-01-31T03:11:13.991Z,10.73
2019-01-31T03:13:55.058Z,6.63
2019-01-31T03:16:37.091Z,10.33
2019-01-31T03:19:28.195Z,10.53
2019-01-31T03:22:16.318Z,10.77
2019-01-31T03:25:02.375Z,4.73
2019-01-31T03:27:37.626Z,7.77
2019-01-31T03:30:24.872Z,7.47
2019-01-31T03:33:13.312Z,7.10
2019-01-31T03:36:01.474Z,8.20
2019-01-31T03:38:58.592Z,7.80
2019-01-31T03:41:31.978Z,5.00
2019-01-31T03:44:12.567Z,6.20
2019-01-31T03:46:48.309Z,9.93
2019-01-31T03:49:24.217Z,10.87
2019-01-31T03:52:01.538Z,9.33
2019-01-31T03:54:52.506Z,9.30
2019-01-31T03:57:40.608Z,11.93
2019-01-31T04:00:17.002Z,4.33
2019-01-31T04:02:52.202Z,2.40
2019-01-31T04:05:40.395Z,4.73
2019-01-31T04:08:09.699Z,7.23
2019-01-31T04:10:38.753Z,5.13
2019-01-31T04:13:07.709Z,3.87
2019-01-31T04:15:36.763Z,7.10
2019-01-31T04:18:05.738Z,12.87
2019-01-31T04:20:34.792Z,7.37
2019-01-31T04:23:03.920Z,5.43
2019-01-31T04:25:32.903Z,5.13
2019-01-31T04:28:01.869Z,5.83
2019-01-31T04:30:30.943Z,5.43
2019-01-31T04:32:59.970Z,6.47
2019-01-31T04:35:29.025Z,8.07
2019-01-31T04:37:57.997Z,6.37
2019-01-31T04:40:31.435Z,6.60
2019-01-31T04:42:57.721Z,7.37
2019-01-31T04:45:26.695Z,8.00
2019-01-31T04:47:56.472Z,7.23
2019-01-31T04:50:25.674Z,8.40
2019-01-31T04:52:54.670Z,6.10
2019-01-31T04:55:23.740Z,6.80
2019-01-31T04:57:52.714Z,6.73
2019-01-31T05:00:21.704Z,5.80
2019-01-31T05:02:50.680Z,8.70
2019-01-31T05:05:19.739Z,5.63
2019-01-31T05:07:48.704Z,8.53
2019-01-31T05:10:17.768Z,5.13
2019-01-31T05:12:46.763Z,6.50
2019-01-31T05:15:15.823Z,6.93
2019-01-31T05:17:44.868Z,4.07
2019-01-31T05:20:15.162Z,6.47
2019-01-31T05:22:44.190Z,5.97
2019-01-31T05:25:13.437Z,5.53
2019-01-31T05:27:42.451Z,4.33
2019-01-31T05:30:12.150Z,7.00
2019-01-31T05:32:41.126Z,5.03
2019-01-31T05:35:10.376Z,6.67
2019-01-31T05:37:39.356Z,7.63
2019-01-31T05:40:09.449Z,5.67
2019-01-31T05:42:38.464Z,7.50
2019-01-31T05:45:08.865Z,8.57
2019-01-31T05:47:37.855Z,6.77
2019-01-31T05:50:08.646Z,5.33
2019-01-31T05:52:37.607Z,6.40
2019-01-31T05:55:06.627Z,7.90
2019-01-31T05:57:35.667Z,4.87
2019-01-31T06:00:05.283Z,8.60
2019-01-31T06:02:34.361Z,5.60
2019-01-31T06:05:03.455Z,6.33
2019-01-31T06:07:32.442Z,8.33
2019-01-31T06:10:01.442Z,5.73
2019-01-31T06:12:30.423Z,7.73
2019-01-31T06:14:59.523Z,6.80
2019-01-31T06:17:28.674Z,10.13
2019-01-31T06:19:57.690Z,4.20
2019-01-31T06:22:26.791Z,5.73
2019-01-31T06:24:55.848Z,8.17
2019-01-31T06:27:24.834Z,5.40
2019-01-31T06:29:53.879Z,5.43
2019-01-31T06:32:22.963Z,7.07
2019-01-31T06:34:51.939Z,5.00
2019-01-31T06:37:20.930Z,6.93
2019-01-31T06:39:49.905Z,6.87
2019-01-31T06:42:18.944Z,5.70
2019-01-31T06:44:47.928Z,5.47
2019-01-31T06:47:16.972Z,6.57
2019-01-31T06:49:46.013Z,6.00
2019-01-31T06:52:15.027Z,7.80
2019-01-31T06:54:44.108Z,5.10
2019-01-31T06:57:13.111Z,6.97
2019-01-31T06:59:42.104Z,7.90
2019-01-31T07:02:11.455Z,7.23
2019-01-31T07:04:40.414Z,7.50
2019-01-31T07:07:12.392Z,8.07
2019-01-31T07:09:41.429Z,7.00
2019-01-31T07:12:10.539Z,6.43
2019-01-31T07:14:39.538Z,5.87
2019-01-31T07:17:08.608Z,6.23
2019-01-31T07:19:37.603Z,4.87
2019-01-31T07:22:06.595Z,6.53
2019-01-31T07:24:35.611Z,6.50
2019-01-31T07:27:04.703Z,10.03
2019-01-31T07:29:33.751Z,8.93
2019-01-31T07:32:03.738Z,7.73
2019-01-31T07:34:32.789Z,6.83
2019-01-31T07:37:01.856Z,6.37
2019-01-31T07:39:30.909Z,8.50
2019-01-31T07:41:59.898Z,9.63
2019-01-31T07:44:28.875Z,7.53
2019-01-31T07:46:57.860Z,7.40
2019-01-31T07:49:26.834Z,7.33
2019-01-31T07:51:55.931Z,6.13
2019-01-31T07:54:24.932Z,7.60
2019-01-31T07:56:54.020Z,6.70
2019-01-31T07:59:23.002Z,7.77
2019-01-31T08:01:51.991Z,8.73
2019-01-31T08:04:20.967Z,8.07
2019-01-31T08:06:49.956Z,6.43
2019-01-31T08:09:18.922Z,8.80
2019-01-31T08:11:52.795Z,5.57
2019-01-31T08:14:18.664Z,4.60
2019-01-31T08:16:47.653Z,5.83
2019-01-31T08:19:17.624Z,4.20
2019-01-31T08:21:46.604Z,4.80
2019-01-31T08:24:15.595Z,7.40
2019-01-31T08:26:44.561Z,7.03
2019-01-31T08:29:13.699Z,5.30
2019-01-31T08:31:42.922Z,7.53
2019-01-31T08:34:11.959Z,6.63
2019-01-31T08:36:40.943Z,7.50
2019-01-31T08:39:10.031Z,5.27
2019-01-31T08:41:39.002Z,6.43
2019-01-31T08:44:08.030Z,5.30
2019-01-31T08:46:37.177Z,6.60
2019-01-31T08:49:06.195Z,6.57
2019-01-31T08:51:35.160Z,8.27
2019-01-31T08:54:04.282Z,6.40
2019-01-31T08:56:33.356Z,5.90
2019-01-31T08:59:02.388Z,4.27
2019-01-31T09:01:31.446Z,6.07
2019-01-31T09:04:02.579Z,7.67
2019-01-31T09:06:31.547Z,7.70
2019-01-31T09:09:00.569Z,7.20
2019-01-31T09:11:29.625Z,7.63
2019-01-31T09:13:58.691Z,11.83
2019-01-31T09:16:27.751Z,8.77
2019-01-31T09:18:56.995Z,9.10
2019-01-31T09:21:32.023Z,6.77
2019-01-31T09:24:20.253Z,7.50
2019-01-31T09:27:26.567Z,7.00
2019-01-31T09:30:13.068Z,7.70
2019-01-31T09:32:49.056Z,11.73
2019-01-31T09:35:20.490Z,5.50
2019-01-31T09:38:06.079Z,6.50
2019-01-31T09:40:47.925Z,6.23
2019-01-31T09:43:36.115Z,6.63
2019-01-31T09:46:12.090Z,5.53
2019-01-31T09:49:06.276Z,7.00
2019-01-31T09:52:06.184Z,7.27
2019-01-31T09:54:54.295Z,9.00
2019-01-31T09:57:42.540Z,9.70
2019-01-31T10:00:45.896Z,6.70
2019-01-31T10:03:20.560Z,6.67
2019-01-31T10:05:58.285Z,10.50
2019-01-31T10:08:46.508Z,5.87
2019-01-31T10:11:40.512Z,5.30
2019-01-31T10:14:28.779Z,7.30
2019-01-31T10:17:23.116Z,9.43
2019-01-31T10:20:07.644Z,6.37
2019-01-31T10:22:49.616Z,10.10
2019-01-31T10:25:40.502Z,7.17
2019-01-31T10:28:28.679Z,10.43
2019-01-31T10:31:01.529Z,9.70
2019-01-31T10:33:52.677Z,5.60
2019-01-31T10:36:49.619Z,9.27
2019-01-31T10:39:27.918Z,7.10
2019-01-31T10:42:03.993Z,7.17
2019-01-31T10:44:52.200Z,11.37
2019-01-31T10:47:40.324Z,9.87
2019-01-31T10:50:23.548Z,6.93
2019-01-31T10:53:02.983Z,5.53
2019-01-31T10:55:41.364Z,5.80
2019-01-31T10:58:32.699Z,6.83
2019-01-31T11:01:20.886Z,9.47
2019-01-31T11:04:14.838Z,7.53
2019-01-31T11:06:49.082Z,8.43
2019-01-31T11:09:42.776Z,8.13
2019-01-31T11:12:30.393Z,8.00
2019-01-31T11:15:21.619Z,5.53
2019-01-31T11:18:18.661Z,7.83
2019-01-31T11:21:05.431Z,9.13
2019-01-31T11:23:47.703Z,7.30
2019-01-31T11:26:35.912Z,7.83
2019-01-31T11:29:22.505Z,7.10
2019-01-31T11:32:28.907Z,7.03
2019-01-31T11:35:31.939Z,8.20
2019-01-31T11:38:29.112Z,7.50
2019-01-31T11:41:22.988Z,6.43
2019-01-31T11:44:05.163Z,8.77
2019-01-31T11:46:41.201Z,9.40
2019-01-31T11:49:29.492Z,9.97
2019-01-31T11:52:16.258Z,8.63
2019-01-31T11:55:19.579Z,5.33
2019-01-31T11:58:06.122Z,7.20
2019-01-31T12:00:35.122Z,8.00
2019-01-31T12:03:04.347Z,9.03
2019-01-31T12:05:33.388Z,8.73
2019-01-31T12:08:02.367Z,8.73
2019-01-31T12:10:31.460Z,7.47
2019-01-31T12:13:00.641Z,6.53
2019-01-31T12:15:29.686Z,6.30
2019-01-31T12:17:58.660Z,6.23
2019-01-31T12:20:27.696Z,6.07
2019-01-31T12:22:56.789Z,9.80
2019-01-31T12:25:25.807Z,7.50
2019-01-31T12:27:54.881Z,8.67
2019-01-31T12:30:24.931Z,4.67
2019-01-31T12:32:53.976Z,7.17
2019-01-31T12:35:22.975Z,6.00
2019-01-31T12:37:52.060Z,6.40
2019-01-31T12:40:21.052Z,5.13
2019-01-31T12:42:50.034Z,5.27
2019-01-31T12:45:19.396Z,5.93
2019-01-31T12:47:48.364Z,5.87
2019-01-31T12:50:18.583Z,6.10
2019-01-31T12:52:47.556Z,9.53
2019-01-31T12:55:16.552Z,5.90
2019-01-31T12:57:45.517Z,6.00
2019-01-31T13:00:16.792Z,6.17
2019-01-31T13:02:45.763Z,7.07
2019-01-31T13:05:15.201Z,7.30
2019-01-31T13:07:44.659Z,5.80
2019-01-31T13:10:13.738Z,5.00
2019-01-31T13:12:48.938Z,5.17
2019-01-31T13:15:14.136Z,6.17
2019-01-31T13:17:43.304Z,5.63
2019-01-31T13:20:13.947Z,6.47
2019-01-31T13:22:43.426Z,6.50
2019-01-31T13:25:12.670Z,6.80
2019-01-31T13:27:41.750Z,6.37
2019-01-31T13:30:11.859Z,5.17
2019-01-31T13:32:40.947Z,7.57
2019-01-31T13:35:10.194Z,7.30
2019-01-31T13:37:39.346Z,5.97
2019-01-31T13:40:10.489Z,7.50
2019-01-31T13:42:39.502Z,6.10
2019-01-31T13:45:09.503Z,7.17
2019-01-31T13:47:40.297Z,14.17
2019-01-31T13:50:09.933Z,40.20
2019-01-31T13:52:38.997Z,26.70
2019-01-31T13:55:21.365Z,26.67
2019-01-31T13:57:50.341Z,16.53
2019-01-31T14:00:20.436Z,11.40
2019-01-31T14:02:49.694Z,10.03
2019-01-31T14:05:18.699Z,7.50
2019-01-31T14:07:47.714Z,17.47
2019-01-31T14:10:18.680Z,55.97
2019-01-31T14:12:47.723Z,52.30
2019-01-31T14:15:18.110Z,16.43
2019-01-31T14:17:47.176Z,11.87
2019-01-31T14:20:17.522Z,7.03
2019-01-31T14:22:46.505Z,5.20
2019-01-31T14:25:15.559Z,9.40
2019-01-31T14:27:44.557Z,10.97
2019-01-31T14:30:15.762Z,7.90
2019-01-31T14:32:45.246Z,11.23
2019-01-31T14:35:14.235Z,4.43
2019-01-31T14:37:43.227Z,5.77
2019-01-31T14:40:12.301Z,3.87
2019-01-31T14:42:41.376Z,5.87
2019-01-31T14:45:10.711Z,5.00
2019-01-31T14:47:39.752Z,6.90
2019-01-31T14:50:10.365Z,5.57
2019-01-31T14:52:39.366Z,5.37
2019-01-31T14:55:08.647Z,8.40
2019-01-31T14:57:37.631Z,5.60
2019-01-31T15:00:08.381Z,16.20
2019-01-31T15:02:37.453Z,11.97
2019-01-31T15:05:07.765Z,6.80
2019-01-31T15:07:36.779Z,11.30
2019-01-31T15:10:06.625Z,12.80
2019-01-31T15:12:35.608Z,16.73
2019-01-31T15:15:05.434Z,21.33
2019-01-31T15:17:34.467Z,19.33
2019-01-31T15:20:04.303Z,4.70
2019-01-31T15:22:33.354Z,7.30
2019-01-31T15:25:02.436Z,7.17
2019-01-31T15:27:31.517Z,4.73
2019-01-31T15:30:00.593Z,12.27
2019-01-31T15:32:32.771Z,12.47
2019-01-31T15:35:00.366Z,15.40
2019-01-31T15:37:29.391Z,8.93
2019-01-31T15:39:59.543Z,6.27
2019-01-31T15:42:28.608Z,7.40
2019-01-31T15:44:57.706Z,6.63
2019-01-31T15:47:26.708Z,5.13
2019-01-31T15:50:14.767Z,4.13
2019-01-31T15:52:43.832Z,6.70
2019-01-31T15:55:13.372Z,4.50
2019-01-31T15:57:42.458Z,9.33
2019-01-31T16:00:15.897Z,5.83
2019-01-31T16:02:44.986Z,10.73
2019-01-31T16:05:19.019Z,9.07
2019-01-31T16:07:44.671Z,7.17
2019-01-31T16:10:16.790Z,11.10
2019-01-31T16:12:45.811Z,10.00
2019-01-31T16:15:15.154Z,6.77
2019-01-31T16:17:44.189Z,5.90
2019-01-31T16:20:13.242Z,11.07
2019-01-31T16:22:42.416Z,10.60
2019-01-31T16:25:11.575Z,8.17
2019-01-31T16:27:40.570Z,8.07
2019-01-31T16:30:10.512Z,7.33
2019-01-31T16:32:39.611Z,6.50
2019-01-31T16:35:09.706Z,7.47
2019-01-31T16:37:38.687Z,9.00
2019-01-31T16:40:08.698Z,7.83
2019-01-31T16:42:37.693Z,10.03
2019-01-31T16:45:07.567Z,10.20
2019-01-31T16:47:36.561Z,8.67
2019-01-31T16:50:06.703Z,6.80
2019-01-31T16:52:35.695Z,7.73
2019-01-31T16:55:05.302Z,8.53
2019-01-31T16:57:34.294Z,11.63
2019-01-31T17:00:03.415Z,9.03
2019-01-31T17:02:32.400Z,23.43
2019-01-31T17:05:01.474Z,10.00
2019-01-31T17:07:30.554Z,20.23
2019-01-31T17:09:59.615Z,9.23
2019-01-31T17:12:28.619Z,16.13
2019-01-31T17:14:57.681Z,13.20
2019-01-31T17:17:26.692Z,9.93
2019-01-31T17:19:55.776Z,10.63
2019-01-31T17:22:24.783Z,10.10
2019-01-31T17:24:53.783Z,8.87
2019-01-31T17:27:22.956Z,9.07
2019-01-31T17:29:51.991Z,11.97
2019-01-31T17:32:20.981Z,13.23
2019-01-31T17:34:50.120Z,8.33
2019-01-31T17:37:19.219Z,16.53
2019-01-31T17:39:48.189Z,10.10
2019-01-31T17:42:17.186Z,11.03
2019-01-31T17:44:46.283Z,25.73
2019-01-31T17:47:15.455Z,12.47
2019-01-31T17:49:44.419Z,10.03
2019-01-31T17:52:13.485Z,12.80
2019-01-31T17:54:42.471Z,9.90
2019-01-31T17:57:11.546Z,10.30
2019-01-31T17:59:40.513Z,8.23
2019-01-31T18:02:09.695Z,10.67
2019-01-31T18:04:38.814Z,11.13
2019-01-31T18:07:07.939Z,15.10
2019-01-31T18:09:38.098Z,12.33
2019-01-31T18:12:07.225Z,10.10
2019-01-31T18:14:36.193Z,11.63
2019-01-31T18:17:05.460Z,10.77
2019-01-31T18:19:34.629Z,9.10
2019-01-31T18:22:06.849Z,8.67
2019-01-31T18:24:36.238Z,7.50
2019-01-31T18:27:05.471Z,18.10
2019-01-31T18:29:34.727Z,11.93
2019-01-31T18:32:03.910Z,13.13
2019-01-31T18:34:32.923Z,8.13
2019-01-31T18:37:01.969Z,9.40
2019-01-31T18:39:31.084Z,9.50
2019-01-31T18:42:00.555Z,7.17
2019-01-31T18:44:29.606Z,10.20
2019-01-31T18:46:58.817Z,6.10
2019-01-31T18:49:28.205Z,12.23
2019-01-31T18:51:57.195Z,12.63
2019-01-31T18:54:26.351Z,7.07
2019-01-31T18:56:55.435Z,7.00
2019-01-31T18:59:24.455Z,8.37
2019-01-31T19:01:53.563Z,8.47
2019-01-31T19:04:22.699Z,7.53
2019-01-31T19:06:51.827Z,9.87
2019-01-31T19:09:20.899Z,7.60
2019-01-31T19:11:49.880Z,9.67
2019-01-31T19:14:18.865Z,9.10
2019-01-31T19:16:47.838Z,9.03
2019-01-31T19:19:16.836Z,7.43
2019-01-31T19:21:45.818Z,7.00
2019-01-31T19:24:14.917Z,5.33
2019-01-31T19:26:43.987Z,7.30
2019-01-31T19:29:12.981Z,7.27
2019-01-31T19:31:42.052Z,6.93
2019-01-31T19:34:11.230Z,8.90
2019-01-31T19:36:40.428Z,6.07
2019-01-31T19:39:13.971Z,7.50
2019-01-31T19:41:42.962Z,8.07
2019-01-31T19:44:12.014Z,7.23
2019-01-31T19:46:41.065Z,6.83
2019-01-31T19:49:10.059Z,8.20
2019-01-31T19:51:39.236Z,7.03
2019-01-31T19:54:08.311Z,7.03
2019-01-31T19:56:37.315Z,10.17
2019-01-31T19:59:06.801Z,8.73
2019-01-31T20:01:35.995Z,7.53
2019-01-31T20:04:05.187Z,7.50
2019-01-31T20:06:34.661Z,6.80
2019-01-31T20:09:06.977Z,5.57
2019-01-31T20:11:36.040Z,9.60
2019-01-31T20:14:05.129Z,4.87
2019-01-31T20:16:34.195Z,5.00
2019-01-31T20:19:03.180Z,6.13
2019-01-31T20:21:32.360Z,7.30
2019-01-31T20:24:01.516Z,9.97
2019-01-31T20:26:30.614Z,7.07
2019-01-31T20:28:59.692Z,9.53
2019-01-31T20:31:28.660Z,6.37
2019-01-31T20:33:57.665Z,8.77
2019-01-31T20:36:26.749Z,8.27
2019-01-31T20:38:55.824Z,9.87
2019-01-31T20:41:27.387Z,12.40
2019-01-31T20:43:55.668Z,13.37
2019-01-31T20:46:24.680Z,9.00
2019-01-31T20:48:53.842Z,6.83
2019-01-31T20:51:22.876Z,8.23
2019-01-31T20:53:51.873Z,9.23
2019-01-31T20:56:20.885Z,9.57
2019-01-31T20:58:49.886Z,9.97
2019-01-31T21:01:18.903Z,12.47
2019-01-31T21:03:49.615Z,8.37
2019-01-31T21:06:18.812Z,8.87
2019-01-31T21:08:47.853Z,4.03
2019-01-31T21:11:16.852Z,5.80
2019-01-31T21:13:45.854Z,5.80
2019-01-31T21:16:15.000Z,9.10
2019-01-31T21:18:44.026Z,7.37
2019-01-31T21:21:13.015Z,8.33
2019-01-31T21:23:42.042Z,6.03
2019-01-31T21:26:11.203Z,6.00
2019-01-31T21:28:40.291Z,6.77
2019-01-31T21:31:09.406Z,5.17
2019-01-31T21:33:38.378Z,5.30
2019-01-31T21:36:07.523Z,8.03
2019-01-31T21:38:36.571Z,6.23
2019-01-31T21:41:05.768Z,10.33
2019-01-31T21:43:34.758Z,6.27
2019-01-31T21:46:03.767Z,7.53
2019-01-31T21:48:32.744Z,12.03
2019-01-31T21:51:01.766Z,8.93
2019-01-31T21:53:30.786Z,8.37
2019-01-31T21:55:59.827Z,7.23
2019-01-31T21:58:28.792Z,10.33
2019-01-31T22:00:57.852Z,7.00
2019-01-31T22:03:26.845Z,11.00
2019-01-31T22:05:55.995Z,10.20
2019-01-31T22:08:25.102Z,9.60
2019-01-31T22:10:54.151Z,8.07
2019-01-31T22:13:23.149Z,9.97
2019-01-31T22:15:52.242Z,8.33
2019-01-31T22:18:21.286Z,10.17
2019-01-31T22:20:50.336Z,8.03
2019-01-31T22:23:19.327Z,6.70
2019-01-31T22:25:48.398Z,8.90
2019-01-31T22:28:17.390Z,11.10
2019-01-31T22:30:46.424Z,11.10
2019-01-31T22:33:15.411Z,6.80
2019-01-31T22:35:44.470Z,7.33
2019-01-31T22:38:13.463Z,10.10
2019-01-31T22:40:42.466Z,8.93
2019-01-31T22:43:11.499Z,11.80
2019-01-31T22:45:40.538Z,10.93
2019-01-31T22:48:09.544Z,30.07
2019-01-31T22:50:38.525Z,35.27
2019-01-31T22:53:07.683Z,36.90
2019-01-31T22:55:37.386Z,25.43
2019-01-31T22:58:06.869Z,28.53
2019-01-31T23:01:24.674Z,21.10
2019-01-31T23:03:53.816Z,19.63
2019-01-31T23:06:23.122Z,17.03
2019-01-31T23:08:53.792Z,16.47
2019-01-31T23:11:26.548Z,16.67
2019-01-31T23:13:55.567Z,17.30
2019-01-31T23:16:24.642Z,14.50
2019-01-31T23:18:53.602Z,10.70
2019-01-31T23:21:22.628Z,11.97
2019-01-31T23:23:51.673Z,17.83
2019-01-31T23:26:22.540Z,12.57
2019-01-31T23:28:51.548Z,7.43
2019-01-31T23:31:20.563Z,11.70
2019-01-31T23:33:49.571Z,12.97
2019-01-31T23:36:18.571Z,14.97
2019-01-31T23:38:47.655Z,19.53
2019-01-31T23:41:16.719Z,14.67
2019-01-31T23:43:45.740Z,12.53
2019-01-31T23:46:14.768Z,10.03
2019-01-31T23:48:43.747Z,6.93
2019-01-31T23:51:12.773Z,7.67
2019-01-31T23:53:41.759Z,11.97
2019-01-31T23:56:10.867Z,11.10
2019-01-31T23:58:40.159Z,15.47
